Time;durP1;ratioP1;P1;durP2;ratioP2;P2;SDS_P1;SDS_P2;PMS_P1;PMS_P2;Temp;Humidity;BMP_temperature;BMP_pressure;BME280_temperature;BME280_humidity;BME280_pressure;Samples;Min_cycle;Max_cycle;Signal;HPM_P1;HPM_P2
2022/12/06 00:02:37;;;;;;;33.72;17.00;;;;;;;3.48;100.00;100974.09;8421222;28;20040;-51
2022/12/06 00:06:41;;;;;;;35.28;17.25;;;;;;;3.51;100.00;100973.91;8420808;28;20051;-50
2022/12/06 00:10:42;;;;;;;38.17;17.52;;;;;;;3.48;100.00;100971.41;8421518;28;20509;-49
2022/12/06 00:14:42;;;;;;;36.35;18.38;;;;;;;3.51;100.00;100963.22;8419948;28;20467;-53
2022/12/06 00:18:46;;;;;;;34.88;17.80;;;;;;;3.53;100.00;100972.03;8420862;28;20028;-49
2022/12/06 00:22:47;;;;;;;37.70;17.77;;;;;;;3.52;100.00;100962.31;8420891;28;20440;-51
2022/12/06 00:26:49;;;;;;;38.50;18.75;;;;;;;3.54;100.00;100959.53;8420122;28;20082;-49
2022/12/06 00:30:50;;;;;;;43.13;19.92;;;;;;;3.55;100.00;100962.13;8421019;28;20383;-50
2022/12/06 00:34:50;;;;;;;44.20;21.33;;;;;;;3.56;100.00;100961.16;8420156;28;20074;-49
2022/12/06 00:38:51;;;;;;;36.47;18.05;;;;;;;3.58;100.00;100953.94;8421231;28;20044;-49
2022/12/06 00:42:52;;;;;;;38.00;17.27;;;;;;;3.58;100.00;100959.28;8421105;28;20032;-50
2022/12/06 00:46:52;;;;;;;43.67;17.98;;;;;;;3.66;100.00;100961.53;8420703;28;20032;-49
2022/12/06 00:50:53;;;;;;;40.97;19.10;;;;;;;3.68;100.00;100952.47;8419417;28;20111;-53
2022/12/06 00:54:54;;;;;;;39.78;17.45;;;;;;;3.69;100.00;100954.19;8419121;28;20495;-51
2022/12/06 00:58:54;;;;;;;43.63;18.85;;;;;;;3.70;100.00;100955.06;8420819;28;20044;-52
2022/12/06 01:02:56;;;;;;;46.15;18.63;;;;;;;3.70;100.00;100947.91;8420503;28;20461;-50
2022/12/06 01:06:57;;;;;;;45.45;19.00;;;;;;;3.70;100.00;100947.91;8420498;28;20047;-50
2022/12/06 01:10:58;;;;;;;51.92;19.30;;;;;;;3.71;100.00;100949.63;8422615;28;20087;-50
2022/12/06 01:14:58;;;;;;;44.78;19.02;;;;;;;3.76;100.00;100944.84;8426860;28;20039;-49
2022/12/06 01:19:03;;;;;;;46.45;19.35;;;;;;;3.82;100.00;100941.81;8426894;28;20036;-50
2022/12/06 01:23:03;;;;;;;45.75;18.65;;;;;;;3.87;100.00;100949.59;8427191;28;20119;-50
2022/12/06 01:27:04;;;;;;;42.30;20.20;;;;;;;3.89;100.00;100956.59;8424156;28;20596;-49
2022/12/06 01:31:06;;;;;;;46.95;19.45;;;;;;;3.88;100.00;100957.53;8434807;28;20055;-50
2022/12/06 01:35:07;;;;;;;53.83;19.80;;;;;;;3.90;100.00;100961.00;8426010;28;20047;-49
2022/12/06 01:39:09;;;;;;;38.03;17.08;;;;;;;3.93;100.00;100955.47;8426213;28;20115;-49
2022/12/06 01:43:34;;;;;;;45.45;17.70;;;;;;;3.95;100.00;100958.91;8426864;28;20036;-49
2022/12/06 01:47:39;;;;;;;45.92;18.73;;;;;;;3.94;100.00;100961.69;8425785;28;20060;-49
2022/12/06 01:51:42;;;;;;;;;;;;;;;3.96;100.00;100960.63;8426097;28;20044;-50
2022/12/06 01:55:43;;;;;;;43.35;16.33;;;;;;;3.95;100.00;100952.69;8425661;28;19920;-49
2022/12/06 01:59:44;;;;;;;52.95;18.02;;;;;;;3.95;100.00;100950.03;8425759;28;20040;-50
2022/12/06 02:03:47;;;;;;;44.58;18.73;;;;;;;3.97;100.00;100946.31;8425661;28;20032;-52
2022/12/06 02:07:48;;;;;;;48.78;18.20;;;;;;;3.98;100.00;100945.38;8425327;28;20035;-49
2022/12/06 02:11:48;;;;;;;46.08;18.45;;;;;;;3.98;100.00;100945.38;8425197;28;20044;-53
2022/12/06 02:16:01;;;;;;;45.15;18.73;;;;;;;4.01;100.00;100947.88;8423898;28;20032;-49
2022/12/06 02:20:32;;;;;;;48.00;19.60;;;;;;;4.02;100.00;100943.38;8425279;28;20036;-50
2022/12/06 02:29:25;;;;;;;50.78;19.55;;;;;;;4.00;100.00;100940.78;8351813;27;20396;-48
2022/12/06 02:33:33;;;;;;;58.15;21.80;;;;;;;4.00;100.00;100930.06;8349576;28;20083;-50
2022/12/06 02:37:43;;;;;;;51.83;21.05;;;;;;;4.02;100.00;100933.53;8348215;28;20043;-49
2022/12/06 02:41:51;;;;;;;45.80;20.30;;;;;;;4.03;100.00;100924.53;8342560;28;20041;-48
2022/12/06 02:45:55;;;;;;;47.03;19.08;;;;;;;4.04;100.00;100920.94;8320952;28;20507;-48
2022/12/06 02:49:58;;;;;;;50.00;20.85;;;;;;;4.06;100.00;100919.03;8311978;28;20125;-48
2022/12/06 02:54:04;;;;;;;42.20;18.98;;;;;;;4.09;100.00;100921.50;8316409;28;20045;-48
2022/12/06 02:58:04;;;;;;;43.08;18.08;;;;;;;4.14;100.00;100923.06;8324718;28;20033;-49
2022/12/06 03:02:09;;;;;;;47.45;18.95;;;;;;;4.19;100.00;100912.94;8349442;28;20041;-48
2022/12/06 03:06:44;;;;;;;42.58;18.52;;;;;;;4.19;100.00;100918.28;8348023;28;20041;-49
2022/12/06 03:10:52;;;;;;;53.95;19.60;;;;;;;4.20;100.00;100917.38;8348781;28;20049;-50
2022/12/06 03:15:07;;;;;;;44.03;19.67;;;;;;;4.19;100.00;100918.28;8318713;28;20445;-50
2022/12/06 03:19:20;;;;;;;42.90;17.38;;;;;;;4.20;100.00;100917.38;8289430;28;20034;-49
2022/12/06 03:23:39;;;;;;;45.45;19.58;;;;;;;4.21;100.00;100921.75;8315804;28;20044;-49
2022/12/06 03:27:41;;;;;;;48.03;18.83;;;;;;;4.23;100.00;100919.84;8310723;28;20046;-49
2022/12/06 03:32:04;;;;;;;43.20;19.05;;;;;;;4.24;100.00;100911.72;8315180;28;20539;-52
2022/12/06 03:36:06;;;;;;;49.22;20.15;;;;;;;4.24;100.00;100913.56;8314379;28;20126;-50
2022/12/06 03:40:16;;;;;;;51.92;20.58;;;;;;;4.24;100.00;100910.88;8293103;28;20046;-49
2022/12/06 03:44:18;;;;;;;53.88;20.23;;;;;;;4.25;100.00;100918.81;8292327;28;20154;-50
2022/12/06 03:48:24;;;;;;;61.17;20.00;;;;;;;4.26;100.00;100914.31;8293075;28;20502;-49
2022/12/06 03:52:28;;;;;;;58.03;21.15;;;;;;;4.26;100.00;100908.94;8260841;28;20137;-50
2022/12/06 03:56:30;;;;;;;54.70;20.77;;;;;;;4.27;100.00;100910.69;8260328;28;20034;-49
2022/12/06 04:00:30;;;;;;;66.40;21.52;;;;;;;4.29;100.00;100908.75;8316918;28;20045;-50
2022/12/06 04:04:31;;;;;;;52.58;19.80;;;;;;;4.29;100.00;100914.13;8325693;28;20048;-50
2022/12/06 04:08:32;;;;;;;57.45;21.60;;;;;;;4.30;100.00;100905.16;8326145;28;20124;-50
2022/12/06 04:13:05;;;;;;;51.45;20.27;;;;;;;4.34;100.00;100912.03;8325328;28;20049;-51
2022/12/06 04:18:09;;;;;;;52.72;19.95;;;;;;;4.31;100.00;100907.75;8309315;28;20034;-50
2022/12/06 04:25:35;;;;;;;54.65;19.60;;;;;;;4.32;100.00;100912.13;8258327;28;20451;-50
2022/12/06 04:38:47;;;;;;;47.08;19.30;;;;;;;4.35;100.00;100919.97;8323992;28;20123;-50
2022/12/06 04:43:44;;;;;;;41.83;19.33;;;;;;;4.37;100.00;100922.56;8324306;28;20124;-50
2022/12/06 04:46:58;;;;;;;46.20;19.20;;;;;;;4.37;100.00;100911.84;8323014;28;20037;-50
2022/12/06 04:50:59;;;;;;;51.08;19.90;;;;;;;4.38;100.00;100914.44;8301088;28;20057;-50
2022/12/06 04:54:59;;;;;;;43.28;18.48;;;;;;;4.37;100.00;100899.34;8290320;28;20092;-51
2022/12/06 04:59:00;;;;;;;44.60;19.77;;;;;;;4.41;100.00;100908.03;8292684;28;20038;-50
2022/12/06 05:03:01;;;;;;;51.13;19.33;;;;;;;4.40;100.00;100911.66;8312990;28;20111;-53
2022/12/06 05:07:01;;;;;;;48.03;19.10;;;;;;;4.40;100.00;100911.66;8313157;28;20496;-50
2022/12/06 05:11:02;;;;;;;56.00;19.23;;;;;;;4.40;100.00;100903.66;8299652;28;20442;-50
2022/12/06 05:15:02;;;;;;;56.58;20.30;;;;;;;4.44;100.00;100908.72;8322189;28;20507;-50
2022/12/06 05:19:03;;;;;;;60.55;20.13;;;;;;;4.43;100.00;100907.00;8291325;28;20049;-50
2022/12/06 05:23:04;;;;;;;66.75;21.88;;;;;;;4.47;100.00;100910.34;8290779;28;20124;-50
2022/12/06 05:27:04;;;;;;;64.25;21.05;;;;;;;4.46;100.00;100906.81;8277491;28;20366;-51
2022/12/06 05:31:05;;;;;;;62.08;20.10;;;;;;;4.44;100.00;100907.84;8258012;28;20043;-51
2022/12/06 05:35:06;;;;;;;65.68;20.83;;;;;;;4.39;100.00;100910.81;8244840;28;20193;-52
2022/12/06 05:39:07;;;;;;;70.90;21.35;;;;;;;4.41;100.00;100918.75;8230455;28;20066;-50
2022/12/06 05:43:08;;;;;;;58.15;20.48;;;;;;;4.39;100.00;100915.31;8260920;28;20530;-50
2022/12/06 05:47:08;;;;;;;67.65;22.17;;;;;;;4.42;100.00;100915.13;8277172;28;20061;-54
2022/12/06 05:51:09;;;;;;;64.75;20.77;;;;;;;4.38;100.00;100911.75;8288330;28;20116;-51
2022/12/06 05:55:10;;;;;;;66.20;20.98;;;;;;;4.36;100.00;100910.16;8264577;28;20053;-50
2022/12/06 05:59:10;;;;;;;53.30;19.42;;;;;;;4.37;100.00;100911.84;8278191;28;20065;-51
2022/12/06 06:03:11;;;;;;;59.90;19.33;;;;;;;4.38;100.00;100908.22;8275949;28;20491;-50
2022/12/06 06:07:11;;;;;;;57.47;19.73;;;;;;;4.41;100.00;100905.34;8266219;28;20058;-50
2022/12/06 06:11:12;;;;;;;56.17;19.60;;;;;;;4.42;100.00;100912.44;8254071;28;20033;-50
2022/12/06 06:15:13;;;;;;;56.30;20.15;;;;;;;4.42;100.00;100910.63;8271565;28;20045;-51
2022/12/06 06:19:13;;;;;;;70.75;20.85;;;;;;;4.43;100.00;100916.84;8282837;28;20111;-49
2022/12/06 06:23:14;;;;;;;73.63;25.40;;;;;;;4.50;100.00;100918.19;8302873;28;20042;-48
2022/12/06 06:27:14;;;;;;;93.05;24.83;;;;;;;4.59;100.00;100912.28;8286115;28;20366;-50
2022/12/06 06:31:15;;;;;;;77.20;21.73;;;;;;;4.67;100.00;100915.34;8287159;28;20084;-48
2022/12/06 06:35:15;;;;;;;90.03;23.63;;;;;;;4.73;100.00;100912.31;8256998;28;20474;-51
2022/12/06 06:39:17;;;;;;;80.43;23.42;;;;;;;4.75;100.00;100905.91;8313636;28;20041;-51
2022/12/06 06:43:18;;;;;;;83.63;23.90;;;;;;;4.76;100.00;100907.59;8318308;28;20453;-50
2022/12/06 06:47:20;;;;;;;76.57;23.98;;;;;;;4.77;100.00;100916.50;8318436;28;20132;-51
2022/12/06 06:51:21;;;;;;;87.38;26.90;;;;;;;4.79;100.00;100902.06;8289643;28;20048;-52
2022/12/06 06:55:24;;;;;;;83.10;23.67;;;;;;;4.80;100.00;100910.97;8286064;28;20038;-51
2022/12/06 06:59:25;;;;;;;70.15;23.25;;;;;;;4.79;100.00;100903.91;8287937;28;20089;-50
2022/12/06 07:03:26;;;;;;;68.63;22.63;;;;;;;4.80;100.00;100910.97;8283458;28;20121;-50
2022/12/06 07:07:26;;;;;;;73.53;23.45;;;;;;;4.78;100.00;100910.19;8285983;28;20128;-50
2022/12/06 07:11:27;;;;;;;79.95;23.15;;;;;;;4.82;100.00;100911.75;8279512;28;20045;-50
2022/12/06 07:15:27;;;;;;;73.28;23.17;;;;;;;4.81;100.00;100912.69;8281936;28;20053;-50
2022/12/06 07:19:28;;;;;;;69.13;22.02;;;;;;;4.81;100.00;100907.31;8292229;28;20037;-50
2022/12/06 07:23:30;;;;;;;62.88;22.33;;;;;;;4.81;100.00;100901.97;8294097;28;20265;-49
2022/12/06 07:27:35;;;;;;;66.25;22.65;;;;;;;4.85;100.00;100898.16;8297502;28;20041;-51
2022/12/06 07:31:36;;;;;;;74.00;23.15;;;;;;;4.86;100.00;100910.59;8293195;28;20026;-52
2022/12/06 07:35:36;;;;;;;76.15;23.30;;;;;;;4.87;100.00;100912.31;8294578;28;20034;-50
2022/12/06 07:39:37;;;;;;;66.82;21.52;;;;;;;4.87;100.00;100909.63;8293883;28;20116;-50
2022/12/06 07:45:09;;;;;;;73.68;22.63;;;;;;;4.89;100.00;100910.41;8289482;28;20387;-50
2022/12/06 07:47:58;;;;;;;68.85;22.48;;;;;;;4.91;100.00;100913.84;8290460;28;20064;-52
2022/12/06 07:51:58;;;;;;;69.00;21.15;;;;;;;4.91;100.00;100908.50;8286538;28;20048;-50
2022/12/06 07:56:05;;;;;;;73.70;21.50;;;;;;;4.96;100.00;100917.97;8292632;28;20176;-54
2022/12/06 08:00:08;;;;;;;65.97;21.60;;;;;;;4.98;100.00;100909.81;8284997;28;20214;-50
2022/12/06 08:04:16;;;;;;;68.47;21.35;;;;;;;4.99;100.00;100914.22;8283078;28;20042;-50
2022/12/06 08:08:16;;;;;;;66.25;19.75;;;;;;;5.01;100.00;100915.88;8322010;28;20052;-51
2022/12/06 08:12:17;;;;;;;69.60;20.52;;;;;;;5.03;100.00;100923.81;8293251;28;20522;-51
2022/12/06 08:16:17;;;;;;;70.45;20.80;;;;;;;5.03;100.00;100923.81;8284238;28;20415;-49
2022/12/06 08:20:18;;;;;;;67.72;21.85;;;;;;;5.04;100.00;100925.53;8292900;28;20046;-50
2022/12/06 08:24:18;;;;;;;76.55;23.90;;;;;;;5.04;100.00;100930.88;8292359;28;20049;-51
2022/12/06 08:28:19;;;;;;;74.35;21.98;;;;;;;5.03;100.00;100930.00;8277813;28;20042;-50
2022/12/06 08:32:19;;;;;;;76.03;23.70;;;;;;;5.05;100.00;100935.28;8278302;28;20460;-53
2022/12/06 08:36:22;;;;;;;75.07;22.17;;;;;;;5.07;100.00;100946.75;8275047;28;20042;-50
2022/12/06 08:40:23;;;;;;;82.80;22.95;;;;;;;5.06;100.00;100935.16;8273354;28;20069;-54
2022/12/06 08:44:25;;;;;;;91.45;23.60;;;;;;;5.08;100.00;100935.06;8276419;28;20484;-50
2022/12/06 08:48:26;;;;;;;91.72;23.10;;;;;;;5.08;100.00;100943.13;8276154;28;20551;-51
2022/12/06 08:52:26;;;;;;;78.72;21.73;;;;;;;5.07;100.00;100944.09;8291967;28;20427;-54
2022/12/06 08:56:28;;;;;;;81.45;22.58;;;;;;;5.13;100.00;100946.38;8291339;28;20125;-53
2022/12/06 09:00:28;;;;;;;98.97;22.67;;;;;;;5.16;100.00;100947.03;8286966;28;20049;-51
2022/12/06 09:04:29;;;;;;;88.60;21.95;;;;;;;5.20;100.00;100950.38;8290766;28;20044;-52
2022/12/06 09:08:29;;;;;;;102.88;24.63;;;;;;;5.17;100.00;100955.94;8291501;28;20065;-53
2022/12/06 09:12:30;;;;;;;103.82;25.88;;;;;;;5.18;100.00;100950.50;8291508;28;20072;-50
2022/12/06 09:16:30;;;;;;;100.93;24.85;;;;;;;5.21;100.00;100962.81;8290209;28;20117;-52
2022/12/06 09:20:31;;;;;;;85.88;24.40;;;;;;;5.27;100.00;100962.44;8291209;28;20030;-52
2022/12/06 09:24:32;;;;;;;92.40;22.13;;;;;;;5.29;100.00;100965.91;8290794;28;20323;-50
2022/12/06 09:28:35;;;;;;;85.03;23.77;;;;;;;5.39;100.00;100964.34;8286227;28;20502;-53
2022/12/06 09:32:36;;;;;;;85.37;23.67;;;;;;;5.46;100.00;100971.06;8290887;28;20466;-54
2022/12/06 09:36:46;;;;;;;77.18;21.95;;;;;;;5.53;100.00;100969.72;8289793;28;20038;-51
2022/12/06 09:41:14;;;;;;;64.13;20.35;;;;;;;5.55;100.00;100965.13;8277007;28;20034;-54
2022/12/06 09:49:43;;;;;;;71.60;22.02;;;;;;;5.63;100.00;100979.75;8412904;27;1227892;-52
2022/12/06 09:58:37;;;;;;;61.97;20.65;;;;;;;5.78;100.00;100967.16;8323663;27;20909;-50
2022/12/06 10:03:16;;;;;;;52.83;17.60;;;;;;;5.88;100.00;100971.00;8313986;28;20064;-53
2022/12/06 10:07:40;;;;;;;51.58;17.45;;;;;;;5.91;100.00;100973.47;8315542;28;20045;-51
2022/12/06 10:12:07;;;;;;;51.88;18.33;;;;;;;5.95;100.00;100980.41;8313866;28;20052;-49
2022/12/06 10:20:37;;;;;;;50.17;18.08;;;;;;;5.94;100.00;100978.66;8312056;28;20986;-52
2022/12/06 10:25:02;;;;;;;57.75;16.45;;;;;;;5.99;100.00;100963.13;8317751;28;20042;-51
2022/12/06 10:29:17;;;;;;;56.78;17.98;;;;;;;6.05;100.00;100965.41;8314099;28;20084;-51
2022/12/06 10:33:58;;;;;;;51.22;18.55;;;;;;;6.15;100.00;100966.50;8312508;28;20037;-50
2022/12/06 10:38:27;;;;;;;55.28;18.13;;;;;;;6.26;100.00;100947.88;8316453;28;20056;-50
2022/12/06 10:42:37;;;;;;;54.05;19.48;;;;;;;6.33;100.00;100949.19;8307501;28;20057;-50
2022/12/06 10:47:15;;;;;;;55.33;18.08;;;;;;;6.41;100.00;100941.47;8311645;28;20385;-50
2022/12/06 10:51:28;;;;;;;57.13;17.90;;;;;;;6.42;100.00;100934.25;8296588;28;20124;-52
2022/12/06 10:55:38;;;;;;;44.07;17.37;;;;;;;6.42;100.00;100932.44;8307898;28;20038;-50
2022/12/06 10:59:47;;;;;;;44.22;17.67;;;;;;;6.38;100.00;100936.31;8311274;28;20044;-51
2022/12/06 11:04:03;;;;;;;48.08;17.92;;;;;;;6.37;100.00;100926.50;8311942;28;20718;-50
2022/12/06 11:08:10;;;;;;;44.75;17.60;;;;;;;6.60;100.00;100924.94;8313420;28;20084;-51
2022/12/06 11:12:33;;;;;;;45.72;17.77;;;;;;;6.67;100.00;100927.09;8302024;28;20081;-54
2022/12/06 11:16:40;;;;;;;46.83;17.55;;;;;;;6.63;100.00;100930.97;8311487;28;20124;-50
2022/12/06 11:21:03;;;;;;;37.03;15.85;;;;;;;6.56;100.00;100928.81;8300872;28;20053;-50
2022/12/06 11:25:23;;;;;;;41.20;17.13;;;;;;;6.50;100.00;100929.25;8311480;28;20407;-51
2022/12/06 11:29:24;;;;;;;49.38;16.10;;;;;;;6.51;100.00;100926.44;8301215;28;20122;-50
2022/12/06 11:33:31;;;;;;;42.00;17.02;;;;;;;6.54;100.00;100922.69;8289787;28;20495;-50
2022/12/06 11:37:33;;;;;;;48.58;16.13;;;;;;;6.55;100.00;100936.00;8290237;28;20053;-54
2022/12/06 11:41:36;;;;;;;39.03;15.60;;;;;;;6.62;100.00;100929.25;8289191;28;20125;-51
2022/12/06 11:45:41;;;;;;;37.90;15.10;;;;;;;6.65;100.00;100923.66;8290037;28;20389;-52
2022/12/06 11:49:44;;;;;;;46.85;15.88;;;;;;;6.64;100.00;100927.31;8272656;28;20343;-51
2022/12/06 11:54:06;;;;;;;36.90;14.93;;;;;;;6.58;100.00;100937.63;8289739;28;20042;-50
2022/12/06 12:02:30;;;;;;;31.23;14.60;;;;;;;6.56;100.00;100923.44;8388596;27;20398;-50
2022/12/06 12:06:31;;;;;;;34.55;12.98;;;;;;;6.53;100.00;100919.16;8379607;28;20231;-49
2022/12/06 12:10:37;;;;;;;27.65;12.85;;;;;;;6.60;100.00;100917.75;8383200;28;20344;-53
2022/12/06 12:14:39;;;;;;;28.83;13.50;;;;;;;6.51;100.00;100915.72;8383154;28;20040;-50
2022/12/06 12:18:49;;;;;;;26.95;12.90;;;;;;;6.47;100.00;100919.56;8381488;28;20126;-54
2022/12/06 12:22:59;;;;;;;33.65;13.00;;;;;;;6.52;100.00;100905.84;8365988;28;20052;-51
2022/12/06 12:26:59;;;;;;;32.70;12.40;;;;;;;6.56;100.00;100905.47;8360460;28;20040;-54
2022/12/06 12:31:21;;;;;;;26.65;13.15;;;;;;;6.65;100.00;100907.53;8373485;28;20045;-54
2022/12/06 12:35:24;;;;;;;28.05;12.70;;;;;;;6.63;100.00;100893.38;8376646;28;20493;-50
2022/12/06 12:39:32;;;;;;;32.70;11.77;;;;;;;6.58;100.00;100900.00;8376661;28;20559;-53
2022/12/06 12:43:33;;;;;;;28.58;12.43;;;;;;;6.60;100.00;100896.28;8378112;28;20045;-54
2022/12/06 12:47:35;;;;;;;23.50;10.93;;;;;;;6.70;100.00;100897.34;8379208;28;20076;-53
2022/12/06 12:51:36;;;;;;;21.02;10.00;;;;;;;6.66;100.00;100892.28;8378602;28;20040;-55
2022/12/06 12:55:40;;;;;;;22.65;10.07;;;;;;;6.70;100.00;100883.91;8378079;28;20434;-51
2022/12/06 12:59:44;;;;;;;22.52;9.18;;;;;;;6.70;100.00;100889.28;8371948;28;20051;-54
2022/12/06 13:03:46;;;;;;;19.83;9.48;;;;;;;6.84;100.00;100889.19;8376254;28;20520;-53
2022/12/06 13:07:51;;;;;;;20.92;9.40;;;;;;;6.85;100.00;100890.91;8377720;28;20068;-50
2022/12/06 13:12:00;;;;;;;14.18;8.35;;;;;;;6.94;100.00;100892.94;8366310;28;20045;-52
2022/12/06 13:16:02;;;;;;;20.88;9.95;;;;;;;6.94;100.00;100886.69;8354083;28;20029;-52
2022/12/06 13:20:19;;;;;;;20.65;8.63;;;;;;;6.94;100.00;100879.50;8350203;28;20048;-51
2022/12/06 13:24:25;;;;;;;17.80;8.88;;;;;;;7.04;100.00;100882.38;8349849;28;20116;-52
2022/12/06 13:28:31;;;;;;;18.48;9.15;;;;;;;7.20;100.00;100875.78;8350227;28;20029;-54
2022/12/06 13:32:39;;;;;;;17.77;8.75;;;;;;;7.40;100.00;100875.22;8355451;28;20037;-52
2022/12/06 13:36:39;;;;;;;17.42;8.25;;;;;;;7.63;100.00;100882.44;8356915;28;20055;-54
2022/12/06 13:40:50;;;;;;;12.13;7.40;;;;;;;7.79;100.00;100877.66;8356166;28;20079;-51
2022/12/06 13:44:54;;;;;;;13.27;7.78;;;;;;;7.69;100.00;100875.78;8354385;28;20041;-52
2022/12/06 13:49:02;;;;;;;11.98;6.90;;;;;;;7.59;100.00;100878.28;8352159;28;20040;-55
2022/12/06 13:53:02;;;;;;;12.68;7.15;;;;;;;7.50;100.00;100875.38;8352166;28;20045;-52
2022/12/06 13:57:20;;;;;;;13.57;8.48;;;;;;;7.27;100.00;100874.41;8347326;28;20124;-55
2022/12/06 14:02:11;;;;;;;19.52;8.05;;;;;;;7.22;100.00;100870.31;8330035;28;20144;-52
2022/12/06 14:06:12;;;;;;;14.68;9.02;;;;;;;7.06;100.00;100870.56;8374730;28;20494;-52
2022/12/06 14:10:14;;;;;;;20.17;9.60;;;;;;;6.88;100.00;100871.88;8355913;28;20464;-51
2022/12/06 14:14:17;;;;;;;20.67;9.80;;;;;;;6.67;100.00;100868.00;8352658;28;20063;-53
2022/12/06 14:18:23;;;;;;;15.43;9.43;;;;;;;6.47;100.00;100879.28;8353319;28;20040;-54
2022/12/06 14:22:26;;;;;;;15.82;9.85;;;;;;;6.33;100.00;100876.69;8349467;28;20116;-50
2022/12/06 14:26:29;;;;;;;22.50;11.70;;;;;;;6.26;100.00;100875.38;8349667;28;20095;-51
2022/12/06 14:30:30;;;;;;;31.40;14.13;;;;;;;6.20;100.00;100883.88;8351004;28;20037;-52
2022/12/06 14:34:32;;;;;;;28.20;12.38;;;;;;;6.13;100.00;100879.00;8352891;28;20124;-53
2022/12/06 14:38:33;;;;;;;23.83;11.07;;;;;;;6.15;100.00;100875.25;8353664;28;20044;-50
2022/12/06 14:43:05;;;;;;;29.73;13.32;;;;;;;6.15;100.00;100880.63;8353095;28;20041;-51
2022/12/06 14:46:56;;;;;;;27.25;13.15;;;;;;;6.17;100.00;100877.81;8345648;28;20128;-51
2022/12/06 14:55:16;;;;;;;29.52;13.57;;;;;;;6.24;100.00;100885.38;8340725;28;20384;-52
2022/12/06 14:59:19;;;;;;;30.85;13.18;;;;;;;6.24;100.00;100879.13;8346148;28;20041;-52
2022/12/06 15:03:24;;;;;;;24.08;11.80;;;;;;;6.24;100.00;100871.94;8346847;28;20074;-50
2022/12/06 15:07:39;;;;;;;24.17;11.30;;;;;;;6.31;100.00;100875.91;8344014;28;20530;-50
2022/12/06 15:13:09;;;;;;;25.33;10.40;;;;;;;6.36;100.00;100873.78;8346818;28;20045;-50
2022/12/06 15:16:12;;;;;;;22.50;10.32;;;;;;;6.34;100.00;100874.88;8347369;28;20387;-51
2022/12/06 15:20:14;;;;;;;16.33;8.73;;;;;;;6.32;100.00;100871.41;8341693;28;20040;-53
2022/12/06 15:24:19;;;;;;;21.55;8.98;;;;;;;6.29;100.00;100877.00;8345337;28;20396;-51
2022/12/06 15:28:20;;;;;;;15.25;8.13;;;;;;;6.25;100.00;100881.69;8343986;28;20037;-50
2022/12/06 15:32:23;;;;;;;15.40;8.05;;;;;;;6.23;100.00;100880.97;8342798;28;20411;-53
2022/12/06 15:36:29;;;;;;;15.40;8.38;;;;;;;6.22;100.00;100876.53;8336862;28;20103;-51
2022/12/06 15:40:30;;;;;;;18.50;7.72;;;;;;;6.24;100.00;100873.75;8343256;28;20415;-53
2022/12/06 15:44:30;;;;;;;16.95;8.52;;;;;;;6.20;100.00;100873.13;8341339;28;20037;-52
2022/12/06 15:48:35;;;;;;;17.45;8.52;;;;;;;6.21;100.00;100874.84;8342646;28;20046;-51
2022/12/06 15:52:36;;;;;;;21.45;7.82;;;;;;;6.15;100.00;100874.38;8341173;28;20041;-50
2022/12/06 15:56:36;;;;;;;15.55;7.55;;;;;;;6.09;100.00;100875.66;8333999;28;20048;-49
2022/12/06 16:00:37;;;;;;;12.45;7.13;;;;;;;6.05;100.00;100874.16;8337337;28;20045;-50
2022/12/06 16:04:37;;;;;;;21.50;10.95;;;;;;;6.02;100.00;100874.38;8323188;28;20046;-51
2022/12/06 16:08:40;;;;;;;19.98;9.88;;;;;;;5.99;100.00;100871.88;8315078;28;20065;-52
2022/12/06 16:13:41;;;;;;;12.63;8.82;;;;;;;6.00;100.00;100871.78;8315371;28;20041;-50
2022/12/06 16:17:01;;;;;;;17.23;8.63;;;;;;;6.02;100.00;100866.31;8312021;28;20041;-50
2022/12/06 16:21:02;;;;;;;19.58;9.77;;;;;;;6.06;100.00;100859.75;8316253;28;20045;-50
2022/12/06 16:25:03;;;;;;;20.63;10.27;;;;;;;6.10;100.00;100866.63;8319854;28;20048;-52
2022/12/06 16:29:06;;;;;;;19.55;10.93;;;;;;;6.12;100.00;100869.22;8319304;28;20084;-51
2022/12/06 16:33:11;;;;;;;18.35;10.60;;;;;;;6.17;100.00;100870.66;8319882;28;20049;-50
2022/12/06 16:37:12;;;;;;;22.58;11.68;;;;;;;6.17;100.00;100873.34;8308796;28;20068;-49
2022/12/06 16:41:18;;;;;;;19.10;10.63;;;;;;;6.16;100.00;100874.28;8318930;28;20418;-50
2022/12/06 16:45:19;;;;;;;16.98;9.85;;;;;;;6.16;100.00;100873.44;8316985;28;20151;-50
2022/12/06 16:49:22;;;;;;;19.35;9.45;;;;;;;6.11;100.00;100868.38;8316856;28;20045;-50
2022/12/06 16:53:22;;;;;;;18.88;9.77;;;;;;;6.14;100.00;100870.84;8320496;28;20064;-51
2022/12/06 16:57:23;;;;;;;17.48;10.85;;;;;;;6.15;100.00;100875.25;8320975;28;21076;-50
2022/12/06 17:01:30;;;;;;;24.27;10.98;;;;;;;6.13;100.00;100877.16;8321032;28;20530;-51
2022/12/06 17:05:31;;;;;;;18.90;10.18;;;;;;;6.11;100.00;100873.75;8316267;28;20052;-52
2022/12/06 17:09:32;;;;;;;20.02;10.00;;;;;;;6.08;100.00;100880.16;8319192;28;20046;-51
2022/12/06 17:13:32;;;;;;;20.85;10.70;;;;;;;6.07;100.00;100880.25;8321307;28;20049;-53
2022/12/06 17:17:33;;;;;;;17.35;9.85;;;;;;;6.08;100.00;100873.94;8320399;28;20037;-52
2022/12/06 17:21:34;;;;;;;14.90;9.00;;;;;;;6.07;100.00;100877.56;8318176;28;20087;-50
2022/12/06 17:25:34;;;;;;;18.50;9.82;;;;;;;6.04;100.00;100872.44;8310928;28;20035;-54
2022/12/06 17:29:35;;;;;;;24.35;10.30;;;;;;;6.01;100.00;100859.25;8318375;28;20046;-51
2022/12/06 17:33:35;;;;;;;17.60;10.60;;;;;;;5.99;100.00;100853.09;8314975;28;20044;-53
2022/12/06 17:37:36;;;;;;;19.83;9.98;;;;;;;6.00;100.00;100850.31;8321084;28;20033;-55
2022/12/06 17:43:08;;;;;;;21.50;12.07;;;;;;;6.01;100.00;100856.56;8319258;28;20041;-54
2022/12/06 17:46:06;;;;;;;18.45;9.35;;;;;;;5.99;100.00;100853.09;8316201;28;20091;-52
2022/12/06 17:50:07;;;;;;;19.38;10.15;;;;;;;6.00;100.00;100853.00;8320993;28;20042;-53
2022/12/06 17:54:08;;;;;;;22.10;11.10;;;;;;;5.97;100.00;100855.88;8317456;28;20098;-51
2022/12/06 17:58:08;;;;;;;18.05;10.43;;;;;;;5.97;100.00;100849.66;8316347;28;20029;-52
2022/12/06 18:02:13;;;;;;;20.42;11.07;;;;;;;5.94;100.00;100855.22;8317131;28;20041;-51
2022/12/06 18:06:13;;;;;;;;;;;;;;;5.88;100.00;100852.94;8294348;28;20143;-49
2022/12/06 18:10:14;;;;;;;20.08;11.15;;;;;;;5.79;100.00;100846.34;8314919;28;19920;-51
2022/12/06 18:14:15;;;;;;;20.40;10.73;;;;;;;5.72;100.00;100845.06;8315745;28;20075;-51
2022/12/06 18:18:16;;;;;;;21.95;12.43;;;;;;;5.75;100.00;100849.34;8316894;28;20345;-53
2022/12/06 18:22:17;;;;;;;25.13;13.52;;;;;;;5.80;100.00;100852.59;8315790;28;20033;-50
2022/12/06 18:26:18;;;;;;;33.47;15.27;;;;;;;5.81;100.00;100851.63;8318749;28;20041;-50
2022/12/06 18:30:19;;;;;;;26.90;14.52;;;;;;;5.84;100.00;100854.13;8317049;28;20034;-52
2022/12/06 18:34:20;;;;;;;33.58;16.83;;;;;;;5.79;100.00;100848.16;8320219;28;20041;-53
2022/12/06 18:38:20;;;;;;;41.58;20.48;;;;;;;5.73;100.00;100845.88;8303078;28;20042;-51
2022/12/06 18:42:21;;;;;;;37.22;20.27;;;;;;;5.70;100.00;100849.66;8296526;28;20134;-55
2022/12/06 18:46:23;;;;;;;34.22;17.75;;;;;;;5.69;100.00;100853.31;8307986;28;20120;-51
2022/12/06 18:50:24;;;;;;;42.05;20.98;;;;;;;5.72;100.00;100860.28;8315771;28;20038;-52
2022/12/06 18:54:26;;;;;;;37.83;18.25;;;;;;;5.71;100.00;100858.56;8307344;28;20041;-54
2022/12/06 18:58:26;;;;;;;36.22;19.48;;;;;;;5.64;100.00;100857.22;8317487;28;20119;-51
2022/12/06 19:02:27;;;;;;;42.17;19.00;;;;;;;5.61;100.00;100860.09;8317588;28;20219;-52
2022/12/06 19:06:30;;;;;;;39.90;19.80;;;;;;;5.60;100.00;100850.34;8314136;28;20041;-52
2022/12/06 19:10:31;;;;;;;39.77;19.80;;;;;;;5.67;100.00;100851.66;8317353;28;20034;-50
2022/12/06 19:14:32;;;;;;;37.85;20.52;;;;;;;5.65;100.00;100853.59;8315900;28;20049;-55
2022/12/06 19:18:33;;;;;;;36.58;19.95;;;;;;;5.64;100.00;100858.09;8316257;28;20103;-53